createdAt,value
2019-04-10T00:00:59.289Z,6.00
2019-04-10T00:03:37.032Z,5.93
2019-04-10T00:06:08.783Z,5.83
2019-04-10T00:08:40.393Z,5.76
2019-04-10T00:11:12.349Z,5.72
2019-04-10T00:13:44.924Z,5.66
2019-04-10T00:16:18.454Z,5.61
2019-04-10T00:18:50.516Z,5.54
2019-04-10T00:21:22.969Z,5.53
2019-04-10T00:23:55.535Z,5.47
2019-04-10T00:26:27.856Z,5.44
2019-04-10T00:29:00.247Z,5.39
2019-04-10T00:31:33.857Z,5.36
2019-04-10T00:34:06.005Z,5.28
2019-04-10T00:36:38.002Z,5.29
2019-04-10T00:39:12.563Z,5.21
2019-04-10T00:41:44.394Z,5.19
2019-04-10T00:44:16.433Z,5.04
2019-04-10T00:46:48.711Z,5.04
2019-04-10T00:49:21.819Z,5.06
2019-04-10T00:51:53.390Z,5.00
2019-04-10T00:54:26.106Z,4.98
2019-04-10T00:56:58.892Z,4.89
2019-04-10T00:59:30.866Z,4.89
2019-04-10T01:02:02.608Z,4.86
2019-04-10T01:04:34.322Z,4.81
2019-04-10T01:07:07.047Z,4.77
2019-04-10T01:09:39.648Z,4.77
2019-04-10T01:12:11.872Z,4.74
2019-04-10T01:14:43.646Z,4.71
2019-04-10T01:17:15.856Z,4.71
2019-04-10T01:19:48.216Z,4.58
2019-04-10T01:22:21.234Z,4.56
2019-04-10T01:24:54.412Z,4.54
2019-04-10T01:27:27.765Z,4.46
2019-04-10T01:30:00.117Z,4.31
2019-04-10T01:32:32.755Z,4.31
2019-04-10T01:35:05.789Z,4.33
2019-04-10T01:37:48.420Z,4.32
2019-04-10T01:40:11.521Z,4.33
2019-04-10T01:42:58.959Z,4.33
2019-04-10T01:45:17.914Z,4.29
2019-04-10T01:47:49.732Z,4.29
2019-04-10T01:50:22.161Z,4.22
2019-04-10T01:52:55.447Z,4.10
2019-04-10T01:55:30.300Z,4.05
2019-04-10T01:58:03.031Z,4.07
2019-04-10T02:00:35.623Z,4.05
2019-04-10T02:03:07.245Z,4.01
2019-04-10T02:05:39.542Z,4.06
2019-04-10T02:08:14.344Z,4.01
2019-04-10T02:10:45.298Z,4.01
2019-04-10T02:13:17.179Z,3.92
2019-04-10T02:15:50.271Z,3.89
2019-04-10T02:18:22.064Z,3.92
2019-04-10T02:20:55.665Z,3.89
2019-04-10T02:23:28.144Z,3.87
2019-04-10T02:25:59.741Z,3.85
2019-04-10T02:28:33.284Z,3.83
2019-04-10T02:31:07.222Z,3.80
2019-04-10T02:33:38.917Z,3.82
2019-04-10T02:36:10.940Z,3.75
2019-04-10T02:38:57.328Z,3.74
2019-04-10T02:41:17.408Z,3.68
2019-04-10T02:43:49.218Z,3.60
2019-04-10T02:46:21.981Z,3.59
2019-04-10T02:48:58.015Z,3.53
2019-04-10T02:51:32.488Z,3.56
2019-04-10T02:54:05.198Z,3.50
2019-04-10T02:56:39.116Z,3.49
2019-04-10T02:59:11.334Z,3.44
2019-04-10T03:01:44.239Z,3.44
2019-04-10T03:04:16.509Z,3.48
2019-04-10T03:06:48.803Z,3.42
2019-04-10T03:09:40.478Z,3.42
2019-04-10T03:11:55.436Z,3.40
2019-04-10T03:14:28.465Z,3.41
2019-04-10T03:17:00.220Z,3.34
2019-04-10T03:19:31.810Z,3.35
2019-04-10T03:22:04.101Z,3.38
2019-04-10T03:24:35.952Z,3.37
2019-04-10T03:27:07.543Z,3.35
2019-04-10T03:29:39.987Z,3.30
2019-04-10T03:32:36.344Z,3.28
2019-04-10T03:35:11.090Z,3.26
2019-04-10T03:37:42.799Z,3.27
2019-04-10T03:40:15.366Z,3.28
2019-04-10T03:42:47.443Z,3.26
2019-04-10T03:45:20.217Z,3.26
2019-04-10T03:47:52.886Z,3.28
2019-04-10T03:50:25.826Z,3.25
2019-04-10T03:52:57.975Z,3.19
2019-04-10T03:55:29.933Z,3.18
2019-04-10T03:58:03.427Z,3.19
2019-04-10T04:00:35.040Z,3.14
2019-04-10T04:03:08.529Z,3.12
2019-04-10T04:05:40.194Z,3.12
2019-04-10T04:08:13.032Z,3.13
2019-04-10T04:10:44.776Z,3.12
2019-04-10T04:13:17.479Z,3.14
2019-04-10T04:15:50.485Z,3.13
2019-04-10T04:18:22.811Z,3.15
2019-04-10T04:20:55.066Z,3.10
2019-04-10T04:23:27.772Z,3.13
2019-04-10T04:26:00.912Z,3.18
2019-04-10T04:28:34.463Z,3.17
2019-04-10T04:31:06.120Z,3.20
2019-04-10T04:33:38.848Z,3.25
2019-04-10T04:36:10.556Z,3.24
2019-04-10T04:38:43.204Z,3.24
2019-04-10T04:41:15.428Z,3.24
2019-04-10T04:43:48.716Z,3.26
2019-04-10T04:46:21.193Z,3.26
2019-04-10T04:48:53.019Z,3.23
2019-04-10T04:51:26.067Z,3.28
2019-04-10T04:53:59.146Z,3.35
2019-04-10T04:56:31.732Z,3.42
2019-04-10T04:59:03.643Z,3.42
2019-04-10T05:01:35.995Z,3.52
2019-04-10T05:04:09.054Z,3.54
2019-04-10T05:06:41.738Z,3.56
2019-04-10T05:09:25.958Z,3.59
2019-04-10T05:11:46.949Z,3.67
2019-04-10T05:14:19.589Z,3.76
2019-04-10T05:16:52.644Z,3.81
2019-04-10T05:19:25.505Z,3.90
2019-04-10T05:21:57.534Z,3.91
2019-04-10T05:24:30.040Z,4.00
2019-04-10T05:27:02.354Z,3.97
2019-04-10T05:29:34.585Z,3.99
2019-04-10T05:32:07.218Z,4.08
2019-04-10T05:34:40.399Z,4.16
2019-04-10T05:37:12.124Z,4.15
2019-04-10T05:39:49.159Z,4.28
2019-04-10T05:42:18.319Z,4.28
2019-04-10T05:44:50.269Z,4.40
2019-04-10T05:47:22.043Z,4.41
2019-04-10T05:49:53.793Z,4.47
2019-04-10T05:52:26.679Z,4.53
2019-04-10T05:54:58.588Z,4.43
2019-04-10T05:57:30.802Z,4.53
2019-04-10T06:00:05.126Z,4.67
2019-04-10T06:02:37.036Z,4.73
2019-04-10T06:05:09.745Z,4.74
2019-04-10T06:07:41.649Z,4.88
2019-04-10T06:10:13.402Z,4.84
2019-04-10T06:12:46.698Z,4.87
2019-04-10T06:15:19.106Z,4.97
2019-04-10T06:17:51.103Z,5.00
2019-04-10T06:20:23.259Z,5.03
2019-04-10T06:22:55.847Z,5.11
2019-04-10T06:25:28.774Z,5.29
2019-04-10T06:28:01.143Z,5.32
2019-04-10T06:30:33.996Z,5.44
2019-04-10T06:33:06.024Z,5.53
2019-04-10T06:35:37.895Z,5.58
2019-04-10T06:38:10.609Z,5.73
2019-04-10T06:40:43.955Z,5.86
2019-04-10T06:43:15.632Z,6.02
2019-04-10T06:45:48.228Z,5.96
2019-04-10T06:48:20.008Z,6.05
2019-04-10T06:50:51.903Z,6.15
2019-04-10T06:53:24.711Z,6.23
2019-04-10T06:55:57.313Z,6.22
2019-04-10T06:58:30.618Z,6.11
2019-04-10T07:01:04.136Z,6.23
2019-04-10T07:03:49.469Z,6.28
2019-04-10T07:06:16.966Z,6.40
2019-04-10T07:08:48.857Z,6.39
2019-04-10T07:11:19.071Z,6.37
2019-04-10T07:13:51.242Z,6.49
2019-04-10T07:16:26.630Z,6.61
2019-04-10T07:18:59.887Z,6.61
2019-04-10T07:21:35.529Z,6.59
2019-04-10T07:24:08.304Z,6.57
2019-04-10T07:26:43.705Z,6.69
2019-04-10T07:29:19.746Z,6.91
2019-04-10T07:31:48.566Z,6.91
2019-04-10T07:34:22.058Z,6.85
2019-04-10T07:36:54.033Z,7.02
2019-04-10T07:39:29.229Z,7.10
2019-04-10T07:41:59.992Z,7.15
2019-04-10T07:44:32.615Z,7.13
2019-04-10T07:47:04.759Z,7.25
2019-04-10T07:49:39.428Z,7.16
2019-04-10T07:52:10.561Z,7.12
2019-04-10T07:54:44.610Z,7.20
2019-04-10T07:57:16.119Z,7.26
2019-04-10T07:59:47.732Z,7.26
2019-04-10T08:02:21.163Z,7.12
2019-04-10T08:04:53.906Z,7.02
2019-04-10T08:07:30.368Z,7.30
2019-04-10T08:10:00.062Z,7.25
2019-04-10T08:12:39.496Z,7.51
2019-04-10T08:15:06.944Z,7.79
2019-04-10T08:17:39.067Z,7.69
2019-04-10T08:20:11.712Z,7.78
2019-04-10T08:22:44.807Z,7.89
2019-04-10T08:25:16.723Z,7.83
2019-04-10T08:27:50.066Z,8.12
2019-04-10T08:30:22.025Z,8.35
2019-04-10T08:33:00.753Z,8.06
2019-04-10T08:35:27.406Z,8.36
2019-04-10T08:37:59.291Z,8.26
2019-04-10T08:40:32.089Z,8.28
2019-04-10T08:43:04.165Z,8.33
2019-04-10T08:45:44.945Z,8.44
2019-04-10T08:48:10.080Z,8.49
2019-04-10T08:50:42.009Z,8.68
2019-04-10T08:53:13.916Z,8.67
2019-04-10T08:55:46.237Z,8.92
2019-04-10T08:58:18.807Z,8.91
2019-04-10T09:00:52.729Z,8.93
2019-04-10T09:03:25.021Z,8.72
2019-04-10T09:05:56.815Z,8.40
2019-04-10T09:08:28.828Z,8.52
2019-04-10T09:11:00.988Z,8.76
2019-04-10T09:13:32.836Z,8.81
2019-04-10T09:16:04.630Z,9.08
2019-04-10T09:18:37.215Z,9.38
2019-04-10T09:21:09.061Z,9.52
2019-04-10T09:23:47.291Z,9.26
2019-04-10T09:26:15.537Z,8.98
2019-04-10T09:28:49.481Z,9.10
2019-04-10T09:31:21.800Z,8.96
2019-04-10T09:33:53.753Z,9.01
2019-04-10T09:36:26.965Z,9.06
2019-04-10T09:38:59.081Z,9.00
2019-04-10T09:41:32.027Z,8.98
2019-04-10T09:44:04.528Z,9.00
2019-04-10T09:46:37.445Z,9.02
2019-04-10T09:49:09.539Z,9.33
2019-04-10T09:51:42.457Z,9.29
2019-04-10T09:54:14.124Z,9.40
2019-04-10T09:56:46.353Z,9.67
2019-04-10T09:59:18.094Z,9.55
2019-04-10T10:01:51.415Z,9.59
2019-04-10T10:04:23.658Z,9.60
2019-04-10T10:06:55.809Z,9.83
2019-04-10T10:09:29.256Z,9.73
2019-04-10T10:12:01.740Z,9.69
2019-04-10T10:14:33.438Z,9.89
2019-04-10T10:17:06.537Z,9.78
2019-04-10T10:19:40.620Z,9.45
2019-04-10T10:22:14.697Z,9.72
2019-04-10T10:24:46.872Z,9.81
2019-04-10T10:27:19.986Z,9.65
2019-04-10T10:29:53.556Z,9.72
2019-04-10T10:32:25.299Z,9.78
2019-04-10T10:34:58.989Z,9.69
2019-04-10T10:37:30.574Z,9.68
2019-04-10T10:40:03.455Z,9.68
2019-04-10T10:42:38.503Z,9.59
2019-04-10T10:45:12.504Z,9.65
2019-04-10T10:47:44.329Z,9.55
2019-04-10T10:50:17.181Z,9.65
2019-04-10T10:52:50.078Z,9.79
2019-04-10T10:55:23.281Z,9.91
2019-04-10T10:57:56.174Z,10.18
2019-04-10T11:00:29.321Z,10.20
2019-04-10T11:03:02.249Z,10.12
2019-04-10T11:05:37.188Z,10.40
2019-04-10T11:08:08.984Z,10.69
2019-04-10T11:10:41.314Z,10.99
2019-04-10T11:13:13.349Z,10.92
2019-04-10T11:15:45.960Z,11.07
2019-04-10T11:18:19.480Z,11.23
2019-04-10T11:20:52.287Z,11.19
2019-04-10T11:23:24.558Z,11.13
2019-04-10T11:25:57.699Z,11.26
2019-04-10T11:31:03.264Z,10.86
2019-04-10T11:33:37.291Z,10.86
2019-04-10T11:36:09.830Z,10.84
2019-04-10T11:38:42.894Z,10.95
2019-04-10T11:41:18.915Z,10.84
2019-04-10T11:43:52.602Z,10.98
2019-04-10T11:46:28.290Z,11.19
2019-04-10T11:48:57.806Z,11.31
2019-04-10T11:54:05.371Z,11.26
2019-04-10T11:56:38.375Z,11.00
2019-04-10T11:59:12.356Z,11.03
2019-04-10T12:01:46.206Z,11.04
2019-04-10T12:04:19.554Z,10.95
2019-04-10T12:06:54.054Z,11.07
2019-04-10T12:10:16.821Z,11.36
2019-04-10T12:11:57.391Z,11.41
2019-04-10T12:14:29.986Z,11.46
2019-04-10T12:17:01.915Z,11.31
2019-04-10T12:19:33.589Z,11.16
2019-04-10T12:22:05.917Z,11.27
2019-04-10T12:24:38.528Z,10.93
2019-04-10T12:27:10.567Z,10.91
2019-04-10T12:29:43.887Z,11.01
2019-04-10T12:32:16.659Z,11.07
2019-04-10T12:34:49.018Z,10.89
2019-04-10T12:37:21.011Z,10.55
2019-04-10T12:39:53.028Z,10.42
2019-04-10T12:42:24.559Z,10.48
2019-04-10T12:44:56.386Z,10.17
2019-04-10T12:47:28.525Z,10.17
2019-04-10T12:50:00.327Z,10.26
2019-04-10T12:52:34.571Z,10.39
2019-04-10T12:55:06.677Z,10.28
2019-04-10T12:57:39.157Z,10.16
2019-04-10T13:00:15.968Z,10.19
2019-04-10T13:02:47.778Z,9.99
2019-04-10T13:05:20.911Z,9.96
2019-04-10T13:07:53.976Z,9.98
2019-04-10T13:10:25.915Z,10.15
2019-04-10T13:12:57.762Z,10.22
2019-04-10T13:15:31.888Z,10.37
2019-04-10T13:18:03.936Z,10.41
2019-04-10T13:20:35.746Z,10.61
2019-04-10T13:23:07.237Z,10.55
2019-04-10T13:25:39.161Z,10.39
2019-04-10T13:28:11.570Z,10.33
2019-04-10T13:30:48.879Z,10.26
2019-04-10T13:33:17.313Z,9.93
2019-04-10T13:35:49.496Z,9.93
2019-04-10T13:38:27.628Z,9.85
2019-04-10T13:40:54.840Z,9.78
2019-04-10T13:43:27.660Z,9.85
2019-04-10T13:46:00.832Z,9.85
2019-04-10T13:48:33.445Z,9.74
2019-04-10T13:51:05.886Z,9.75
2019-04-10T13:53:38.306Z,9.60
2019-04-10T13:56:09.826Z,9.45
2019-04-10T13:58:42.617Z,9.44
2019-04-10T14:01:19.657Z,9.54
2019-04-10T14:03:52.437Z,9.58
2019-04-10T14:06:25.448Z,9.50
2019-04-10T14:09:12.235Z,9.58
2019-04-10T14:11:30.613Z,9.46
2019-04-10T14:14:02.523Z,9.51
2019-04-10T14:16:35.043Z,9.44
2019-04-10T14:19:07.738Z,9.36
2019-04-10T14:21:40.854Z,9.40
2019-04-10T14:24:13.247Z,9.46
2019-04-10T14:27:09.101Z,9.37
2019-04-10T14:29:40.973Z,9.16
2019-04-10T14:32:18.449Z,9.15
2019-04-10T14:34:50.544Z,9.08
2019-04-10T14:37:23.267Z,9.06
2019-04-10T14:39:55.781Z,9.07
2019-04-10T14:42:28.533Z,9.17
2019-04-10T14:45:01.394Z,9.16
2019-04-10T14:47:34.359Z,9.13
2019-04-10T14:50:07.526Z,9.12
2019-04-10T14:52:39.278Z,9.18
2019-04-10T14:55:12.455Z,9.21
2019-04-10T14:57:45.490Z,9.27
2019-04-10T15:00:31.163Z,9.26
2019-04-10T15:03:04.358Z,9.20
2019-04-10T15:05:46.487Z,9.23
2019-04-10T15:08:09.935Z,9.28
2019-04-10T15:10:43.948Z,9.24
2019-04-10T15:13:19.740Z,9.22
2019-04-10T15:15:50.391Z,9.22
2019-04-10T15:18:22.563Z,9.23
2019-04-10T15:20:54.457Z,9.21
2019-04-10T15:23:25.995Z,9.31
2019-04-10T15:25:59.881Z,9.31
2019-04-10T15:28:33.923Z,9.37
2019-04-10T15:31:06.840Z,9.35
2019-04-10T15:33:39.435Z,9.42
2019-04-10T15:36:11.601Z,9.40
2019-04-10T15:38:44.361Z,9.39
2019-04-10T15:41:18.979Z,9.44
2019-04-10T15:43:51.738Z,9.43
2019-04-10T15:46:24.794Z,9.43
2019-04-10T15:48:56.919Z,9.46
2019-04-10T15:51:30.020Z,9.56
2019-04-10T15:54:02.042Z,9.59
2019-04-10T15:56:34.140Z,9.54
2019-04-10T15:59:06.263Z,9.51
2019-04-10T16:01:37.886Z,9.55
2019-04-10T16:04:09.866Z,9.60
2019-04-10T16:06:41.926Z,9.61
2019-04-10T16:09:15.067Z,9.50
2019-04-10T16:12:14.618Z,9.48
2019-04-10T16:14:46.629Z,9.45
2019-04-10T16:17:41.945Z,9.46
2019-04-10T16:20:33.611Z,9.42
2019-04-10T16:23:14.907Z,9.32
2019-04-10T16:25:52.389Z,9.26
2019-04-10T16:28:24.133Z,9.28
2019-04-10T16:30:57.202Z,9.22
2019-04-10T16:33:29.422Z,9.10
2019-04-10T16:36:03.078Z,9.06
2019-04-10T16:38:34.864Z,9.03
2019-04-10T16:41:06.651Z,9.12
2019-04-10T16:43:38.349Z,9.13
2019-04-10T16:46:11.121Z,9.05
2019-04-10T16:48:44.210Z,9.07
2019-04-10T16:51:17.242Z,8.99
2019-04-10T16:53:49.932Z,8.84
2019-04-10T16:56:25.428Z,8.93
2019-04-10T16:58:58.474Z,8.94
2019-04-10T17:01:30.950Z,8.96
2019-04-10T17:04:05.021Z,8.92
2019-04-10T17:06:36.953Z,8.87
2019-04-10T17:09:12.254Z,8.84
2019-04-10T17:11:45.134Z,8.80
2019-04-10T17:14:17.547Z,8.84
2019-04-10T17:16:50.314Z,8.75
2019-04-10T17:19:23.598Z,8.81
2019-04-10T17:21:56.877Z,8.78
2019-04-10T17:24:29.302Z,8.78
2019-04-10T17:27:01.503Z,8.74
2019-04-10T17:29:33.591Z,8.72
2019-04-10T17:32:06.981Z,8.71
2019-04-10T17:34:38.998Z,8.59
2019-04-10T17:37:11.931Z,8.64
2019-04-10T17:39:43.921Z,8.57
2019-04-10T17:42:16.582Z,8.56
2019-04-10T17:44:49.969Z,8.54
2019-04-10T17:47:22.877Z,8.50
2019-04-10T17:49:55.946Z,8.56
2019-04-10T17:52:28.107Z,8.44
2019-04-10T17:55:00.886Z,8.53
2019-04-10T17:57:38.552Z,8.48
2019-04-10T18:00:15.890Z,8.54
2019-04-10T18:02:48.556Z,8.54
2019-04-10T18:05:20.511Z,8.54
2019-04-10T18:07:52.876Z,8.57
2019-04-10T18:10:34.376Z,8.50
2019-04-10T18:13:00.879Z,8.50
2019-04-10T18:15:35.826Z,8.48
2019-04-10T18:18:08.303Z,8.48
2019-04-10T18:20:42.236Z,8.49
2019-04-10T18:23:15.516Z,8.46
2019-04-10T18:25:47.337Z,8.42
2019-04-10T18:28:21.299Z,8.44
2019-04-10T18:30:54.486Z,8.42
2019-04-10T18:33:26.533Z,8.43
2019-04-10T18:35:59.462Z,8.43
2019-04-10T18:38:31.741Z,8.43
2019-04-10T18:41:06.876Z,8.41
2019-04-10T18:43:37.740Z,8.40
2019-04-10T18:46:13.392Z,8.36
2019-04-10T18:48:45.596Z,8.41
2019-04-10T18:51:16.365Z,8.35
2019-04-10T18:53:49.288Z,8.39
2019-04-10T18:56:22.218Z,8.40
2019-04-10T18:59:06.726Z,8.39
2019-04-10T19:01:56.082Z,8.40
2019-04-10T19:04:41.747Z,8.37
2019-04-10T19:07:15.382Z,8.38
2019-04-10T19:09:47.235Z,8.35
2019-04-10T19:12:19.301Z,8.39
2019-04-10T19:14:51.144Z,8.37
2019-04-10T19:17:23.068Z,8.38
2019-04-10T19:19:56.754Z,8.37
2019-04-10T19:22:28.574Z,8.35
2019-04-10T19:25:00.744Z,8.31
2019-04-10T19:27:32.407Z,8.29
2019-04-10T19:30:06.699Z,8.33
2019-04-10T19:32:38.792Z,8.30
2019-04-10T19:35:10.902Z,8.29
2019-04-10T19:37:43.325Z,8.23
2019-04-10T19:40:15.909Z,8.19
2019-04-10T19:42:47.742Z,8.19
2019-04-10T19:45:19.569Z,8.13
2019-04-10T19:47:52.721Z,8.07
2019-04-10T19:50:25.533Z,8.02
2019-04-10T19:52:57.163Z,7.97
2019-04-10T19:55:29.626Z,7.98
2019-04-10T19:58:01.764Z,8.01
2019-04-10T20:00:36.753Z,7.92
2019-04-10T20:03:08.653Z,7.87
2019-04-10T20:05:41.513Z,7.91
2019-04-10T20:08:13.281Z,7.81
2019-04-10T20:10:45.705Z,7.87
2019-04-10T20:13:18.703Z,7.90
2019-04-10T20:15:50.958Z,7.91
2019-04-10T20:18:23.002Z,7.91
2019-04-10T20:20:55.464Z,7.90
2019-04-10T20:23:27.898Z,7.86
2019-04-10T20:26:01.353Z,7.87
2019-04-10T20:28:33.159Z,7.88
2019-04-10T20:31:07.009Z,7.89
2019-04-10T20:33:38.911Z,7.87
2019-04-10T20:36:11.058Z,7.84
2019-04-10T20:38:43.072Z,7.83
2019-04-10T20:41:16.315Z,7.82
2019-04-10T20:43:49.584Z,7.80
2019-04-10T20:46:22.250Z,7.82
2019-04-10T20:48:55.075Z,7.80
2019-04-10T20:51:26.864Z,7.76
2019-04-10T20:53:58.625Z,7.73
2019-04-10T20:56:30.697Z,7.76
2019-04-10T20:59:03.506Z,7.81
2019-04-10T21:01:35.186Z,7.76
2019-04-10T21:04:07.849Z,7.76
2019-04-10T21:06:41.934Z,7.75
2019-04-10T21:09:13.459Z,7.75
2019-04-10T21:11:58.059Z,7.74
2019-04-10T21:14:21.103Z,7.71
2019-04-10T21:16:53.002Z,7.64
2019-04-10T21:19:24.925Z,7.67
2019-04-10T21:21:57.512Z,7.66
2019-04-10T21:24:31.545Z,7.64
2019-04-10T21:27:03.720Z,7.59
2019-04-10T21:30:07.271Z,7.63
2019-04-10T21:33:12.127Z,7.62
2019-04-10T21:35:45.565Z,7.50
2019-04-10T21:38:17.660Z,7.45
2019-04-10T21:40:49.503Z,7.47
2019-04-10T21:43:22.787Z,7.52
2019-04-10T21:45:55.375Z,7.49
2019-04-10T21:48:27.562Z,7.47
2019-04-10T21:51:00.582Z,7.45
2019-04-10T21:53:34.091Z,7.49
2019-04-10T21:56:08.510Z,7.46
2019-04-10T21:58:40.853Z,7.40
2019-04-10T22:01:13.498Z,7.43
2019-04-10T22:03:45.621Z,7.47
2019-04-10T22:06:49.433Z,7.48
2019-04-10T22:09:34.897Z,7.44
2019-04-10T22:12:25.961Z,7.45
2019-04-10T22:14:54.041Z,7.40
2019-04-10T22:17:26.814Z,7.40
2019-04-10T22:19:59.443Z,7.42
2019-04-10T22:22:32.957Z,7.43
2019-04-10T22:25:05.341Z,7.44
2019-04-10T22:27:37.455Z,7.42
2019-04-10T22:30:10.452Z,7.44
2019-04-10T22:32:42.842Z,7.42
2019-04-10T22:35:15.247Z,7.43
2019-04-10T22:37:48.336Z,7.32
2019-04-10T22:40:20.160Z,7.33
2019-04-10T22:42:53.264Z,7.21
2019-04-10T22:45:29.227Z,7.28
2019-04-10T22:48:01.738Z,7.30
2019-04-10T22:50:34.511Z,7.33
2019-04-10T22:53:06.856Z,7.30
2019-04-10T22:55:42.614Z,7.28
2019-04-10T22:58:14.967Z,7.23
2019-04-10T23:00:48.450Z,7.23
2019-04-10T23:03:20.331Z,7.22
2019-04-10T23:05:53.069Z,7.11
2019-04-10T23:08:25.398Z,7.04
2019-04-10T23:10:57.454Z,7.02
2019-04-10T23:13:30.130Z,7.03
2019-04-10T23:16:02.041Z,7.01
2019-04-10T23:18:33.929Z,6.94
2019-04-10T23:21:06.101Z,6.95
2019-04-10T23:23:39.025Z,6.93
2019-04-10T23:26:11.130Z,6.93
2019-04-10T23:28:43.999Z,6.93
2019-04-10T23:31:15.632Z,6.84
2019-04-10T23:33:48.272Z,6.74
2019-04-10T23:36:20.269Z,6.78
2019-04-10T23:38:52.170Z,6.76
2019-04-10T23:41:25.479Z,6.78
2019-04-10T23:43:57.793Z,6.77
2019-04-10T23:46:30.456Z,6.73
2019-04-10T23:49:03.937Z,6.72
2019-04-10T23:51:39.098Z,6.76
2019-04-10T23:54:11.193Z,6.67
2019-04-10T23:56:44.785Z,6.72
2019-04-10T23:59:18.248Z,6.69
